Monday, December 17, 2018, 5:27 AM EST
Back to Local

KNYG, Quantico Marine Corps Airfac

Location: MCB Quantico, VA, United States Lat: 38.5
Local Time: 5:27 AM EST (10:27 GMT) Lon: -77.3
Time Zone: US/Eastern Elev: 13 ft

Show me the last for .
Show Coded

Time T Td Feel RH Dir Speed Gust Alt SLP Vis Weather Sky Remarks
2018-12-17 04:56 38 37 33 96 290° 6 - 29.91 29.91 10 CLR None
2018-12-17 03:56 39 38 34 95 290° 7 - 29.93 29.93 10 CLR None
2018-12-17 02:56 40 39 38 96 210° 3 - 29.94 29.94 10 CLR None
2018-12-17 01:56 41 40 39 95 270° 3 - 29.93 29.93 10 FEW041 None
2018-12-17 00:56 43 41 - 92 - Calm - 29.93 29.93 10 OVC039 6-hr Min Temp (1am): 41.0°F
6-hr Max Temp (1am): 44.1°F
2018-12-16 23:56 43 39 - 85 - Calm - 29.93 29.93 10 OVC037 24-hr Min Temp (12am): 41.0°F
24-hr Max Temp (12am): 50.0°F
2018-12-16 22:56 43 40 - 88 - Calm - 29.95 29.95 10 OVC034 None
2018-12-16 22:33 43 40 41 88 320° 3 - 29.95 - 10 OVC031 None
2018-12-16 22:22 43 39 39 85 350° 6 - 29.94 - 10 BKN029 OVC034 None
2018-12-16 21:56 43 39 40 85 330° 5 - 29.95 29.95 10 OVC034 None
2018-12-16 20:56 42 39 38 88 330° 6 - 29.95 29.96 10 OVC034 None
2018-12-16 19:56 42 39 38 88 340° 7 - 29.94 29.95 10 FEW041 None
2018-12-16 19:43 42 39 38 88 360° 7 - 29.94 - 10 SCT015 SCT045 None
2018-12-16 18:56 43 40 38 88 330° 8 - 29.93 29.93 10 SCT016 BKN028 BKN041 6-hr Min Temp (7pm): 43.0°F
6-hr Max Temp (7pm): 46.0°F
2018-12-16 18:22 44 41 39 88 340° 10 - 29.92 - 10 SCT011 OVC017 None
2018-12-16 17:56 44 42 40 92 340° 8 - 29.92 29.92 10 OVC010 None
2018-12-16 16:56 44 41 40 88 340° 8 - 29.90 29.90 10 BKN014 BKN050 OVC080 None
2018-12-16 15:56 44 41 37 88 350° 16 - 29.88 29.88 10 FEW013 BKN041 OVC050 None
2018-12-16 15:49 44 41 38 88 350° 13 - 29.88 - 10 FEW013 SCT031 OVC048 None
2018-12-16 14:56 44 42 36 92 340° 15 21 29.86 29.87 10 OVC012 None
2018-12-16 13:56 45 43 40 92 340° 9 - 29.85 29.85 10 OVC013 None
2018-12-16 12:56 44 43 36 95 350° 13 21 29.83 29.83 10 -RA BKN012 BKN019 OVC024 6-hr Min Temp (1pm): 44.1°F
6-hr Max Temp (1pm): 48.0°F
2018-12-16 11:56 46 45 40 95 10° 13 - 29.85 29.85 10 OVC014 None
2018-12-16 11:33 46 46 38 100 360° 13 21 29.85 - 3 -RA BR SCT009 OVC014 None
2018-12-16 11:09 47 46 43 96 360° 9 - 29.86 - 3 -RA BR OVC012 None
2018-12-16 10:56 47 46 43 96 360° 9 - 29.87 29.87 3 -RA BR BKN009 OVC013 None
2018-12-16 10:41 47 46 42 96 20° 12 - 29.87 - 3 -RA BR BKN009 OVC014 None
2018-12-16 10:34 47 46 42 96 360° 10 - 29.87 - 2 -RA BR OVC009 None
2018-12-16 09:56 46 46 41 100 10° 12 - 29.88 29.88 3 -RA BR BKN009 OVC014 None
2018-12-16 09:18 47 46 41 96 10° 13 - 29.88 - 2 -RA BR BKN009 OVC014 None
2018-12-16 09:09 47 46 43 96 20° 9 - 29.88 - 2 BR OVC011 None
2018-12-16 08:56 47 46 43 96 20° 9 - 29.88 29.88 3 BR BKN009 OVC015 None
2018-12-16 07:56 47 46 41 96 20° 14 - 29.87 29.87 5 BR BKN008 OVC012 None
2018-12-16 07:29 47 47 42 100 30° 12 - 29.86 - 3 BR BKN008 OVC015 None
2018-12-16 07:16 47 47 43 100 30° 9 - 29.86 - 3 BR SCT006 OVC015 None
2018-12-16 07:06 48 48 43 100 50° 12 - 29.87 - 3 BR BKN006 OVC015 None
2018-12-16 06:56 48 48 44 100 40° 9 - 29.87 29.88 2 BR BKN006 OVC011 6-hr Min Temp (7am): 48.0°F
6-hr Max Temp (7am): 50.0°F
2018-12-16 06:29 48 48 44 100 30° 9 - 29.87 - 2 -RA BR FEW005 OVC011 None
2018-12-16 05:56 48 48 44 100 30° 9 - 29.86 29.87 2 BR OVC008 None
2018-12-16 05:29 48 48 43 100 40° 12 - 29.86 - 3 BR OVC008 None

Support USWX by starting your Amazon purchase here.